Aérodrome :
LOGIN :

S'inscrire | Disclaimer

   EN    FR    IT 

 










Légende :    VFR   VFR Marginal   IFR   IFR Intensif   IFR Très Intensif
Visi : 
Plafond : 
>= 8 km
>= 3000ft
5 à 8 km
1000 à 3000 ft
1500m à 5 km
500 à 1000 ft
800 à 1500m
200 à 500 ft
< 800m
< 200 ft
Symboles :   Orages  Brouillard  Fortes neiges  Fortes précipitations  Vent > 20 kt
SIGMETs :   Divers  Orages  Givrage  Turbulence  Onde Orograph.  Cendres Volcan.







- Altitude de l'aérodrome : 587 ft
- Code IATA : XCR
- Voir les cartes d'approche


LFOK - Chalons Vatry

DERNIER METAR :
  • 240000Z AUTO 27003KT 4300 RA BR FEW015/// SCT021/// BKN028/// ///TCU 14/14 Q1012 TEMPO OVC007 BECMG 9999 NSW

METARs EXPIRÉS :
  • 232330Z AUTO 24004KT 6000 -RA FEW020/// OVC052/// ///TCU 14/14 Q1012 TEMPO RA OVC007
  • 232300Z AUTO 23004KT 5000 RA BR FEW030 SCT045 OVC054 14/14 Q1013 TEMPO OVC007
  • 232230Z AUTO 20003KT 7000 -RA FEW034 BKN054 OVC068 15/14 Q1013 TEMPO OVC007 BECMG RA
  • 232200Z AUTO 19005KT 9999 -RA ///TCU 15/14 Q1014 BECMG RA BKN040
  • 232130Z AUTO 20006KT 9999 -RA NSC 15/14 Q1014 BECMG RA

TAF TAF LFOK
Valide du 24 à 00h jusqu'au 25 à 00h UTC


232300Z 2400/2424 31007KT 9999 BKN040
TEMPO 2400/2406 RA OVC007
TEMPO 2410/2418 4000 SHRA BKN015TCU
Pas de NOTAMs connus pour ce terrain.



MET'MAP, la Météo Aéronautique d'un coup d'oeil ! - Copyright ORBIFLY Décembre 2007 - Disclaimer

ORBIFLY MET'MAP TEAM :

Programmation & Développement : Alexandra Zaïnal
Conception & Développement : Baudouin d'Aumeries
Co-Programmation & Développement : Marc-Olivier Méhu
Soutien technique & logistique : Manuel Goepfert

Contact : metmap@orbifly.com




SOURCES & CREDITS :

   NOAA